Time;durP1;ratioP1;P1;durP2;ratioP2;P2;SDS_P1;SDS_P2;PMS_P1;PMS_P2;Temp;Humidity;BMP_temperature;BMP_pressure;BME280_temperature;BME280_humidity;BME280_pressure;Samples;Min_cycle;Max_cycle;Signal;HPM_P1;HPM_P2
2021/08/07 00:01:00;;;;;;;3.78;1.67;;;17.90;81.20;;;;;;5051209;28;20036;-82
2021/08/07 00:03:26;;;;;;;5.05;1.83;;;18.00;81.70;;;;;;5035472;28;20021;-81
2021/08/07 00:05:52;;;;;;;4.70;2.08;;;17.80;81.90;;;;;;5054299;28;20032;-82
2021/08/07 00:08:17;;;;;;;4.22;2.13;;;17.90;82.30;;;;;;5054739;28;20029;-80
2021/08/07 00:10:44;;;;;;;5.72;2.22;;;17.80;82.70;;;;;;5054557;28;20024;-80
2021/08/07 00:13:09;;;;;;;3.88;1.83;;;17.80;82.80;;;;;;5053870;28;20112;-81
2021/08/07 00:15:35;;;;;;;8.10;2.28;;;17.80;83.00;;;;;;5053729;28;20136;-80
2021/08/07 00:18:01;;;;;;;6.45;1.90;;;17.80;83.10;;;;;;5055032;28;20041;-79
2021/08/07 00:20:27;;;;;;;4.25;2.08;;;17.80;83.30;;;;;;5053980;28;20492;-80
2021/08/07 00:22:53;;;;;;;4.18;1.50;;;17.70;83.60;;;;;;5055561;28;20029;-80
2021/08/07 00:25:19;;;;;;;4.13;1.98;;;17.70;83.70;;;;;;5056104;28;20491;-80
2021/08/07 00:27:45;;;;;;;3.53;1.52;;;17.70;84.00;;;;;;5055889;28;20032;-81
2021/08/07 00:30:11;;;;;;;5.70;1.98;;;17.70;83.70;;;;;;5054698;28;20095;-81
2021/08/07 00:32:37;;;;;;;7.45;2.22;;;17.70;83.90;;;;;;5056931;28;20017;-80
2021/08/07 00:35:04;;;;;;;6.43;2.97;;;17.70;84.20;;;;;;5066654;28;20036;-80
2021/08/07 00:37:29;;;;;;;5.25;2.13;;;17.70;84.30;;;;;;5075740;28;20091;-80
2021/08/07 00:39:55;;;;;;;4.78;1.95;;;17.70;84.10;;;;;;5048482;28;20071;-80
2021/08/07 00:42:20;;;;;;;8.38;1.90;;;17.70;83.80;;;;;;5037022;28;20763;-80
2021/08/07 00:44:46;;;;;;;7.60;2.35;;;17.60;83.90;;;;;;5053069;28;20024;-80
2021/08/07 00:47:12;;;;;;;6.57;2.08;;;17.60;84.10;;;;;;5037017;28;20021;-80
2021/08/07 00:49:38;;;;;;;7.00;2.35;;;17.60;84.20;;;;;;5053578;28;20111;-80
2021/08/07 00:52:05;;;;;;;6.40;2.75;;;17.60;84.50;;;;;;5053111;28;20063;-80
2021/08/07 00:54:31;;;;;;;7.07;2.30;;;17.60;84.60;;;;;;5036853;28;20060;-80
2021/08/07 00:56:57;;;;;;;7.50;1.95;;;17.50;84.50;;;;;;5053336;28;21980;-80
2021/08/07 00:59:22;;;;;;;5.85;2.30;;;17.50;84.60;;;;;;5054482;28;20025;-80
2021/08/07 01:01:55;;;;;;;6.75;2.78;;;17.50;84.60;;;;;;5053191;28;20537;-81
2021/08/07 01:04:24;;;;;;;7.28;2.15;;;17.50;84.70;;;;;;5068327;28;20060;-80
2021/08/07 01:07:01;;;;;;;8.07;2.53;;;17.50;84.80;;;;;;5056585;28;20020;-80
2021/08/07 01:09:41;;;;;;;8.13;2.72;;;17.40;84.90;;;;;;5056802;28;20120;-80
2021/08/07 01:12:17;;;;;;;;;;;17.40;85.00;;;;;;5073908;28;20380;-80
2021/08/07 01:14:46;;;;;;;10.85;3.20;;;17.40;85.20;;;;;;5069871;28;20269;-80
2021/08/07 01:17:14;;;;;;;7.35;2.67;;;17.30;85.30;;;;;;5072789;28;20033;-81
2021/08/07 01:20:05;;;;;;;7.20;2.78;;;17.30;85.40;;;;;;5064346;28;20408;-81
2021/08/07 01:22:40;;;;;;;7.18;2.63;;;17.40;85.70;;;;;;5068339;28;20037;-79
2021/08/07 01:25:14;;;;;;;6.93;2.55;;;17.30;86.00;;;;;;5054478;28;20025;-81
2021/08/07 01:27:41;;;;;;;7.32;2.60;;;17.30;86.40;;;;;;5073272;28;20067;-81
2021/08/07 01:30:10;;;;;;;5.80;2.58;;;17.20;86.50;;;;;;5072423;28;20508;-81
2021/08/07 01:32:37;;;;;;;9.93;4.32;;;17.30;86.80;;;;;;5080128;28;20066;-81
2021/08/07 01:35:06;;;;;;;7.82;2.90;;;17.20;87.10;;;;;;5073193;28;20031;-81
2021/08/07 01:37:32;;;;;;;6.95;2.90;;;17.20;87.90;;;;;;5056010;28;20056;-80
2021/08/07 01:39:57;;;;;;;7.70;3.67;;;17.20;87.60;;;;;;5055820;28;20372;-80
2021/08/07 01:42:24;;;;;;;7.03;2.95;;;17.20;88.10;;;;;;5055950;28;20107;-80
2021/08/07 01:44:50;;;;;;;6.85;3.25;;;17.20;88.50;;;;;;5072758;28;20017;-80
2021/08/07 01:47:27;;;;;;;8.55;3.00;;;17.20;88.60;;;;;;5074694;28;20112;-80
2021/08/07 01:50:06;;;;;;;9.73;4.72;;;17.20;88.70;;;;;;5057298;28;20032;-80
2021/08/07 01:52:36;;;;;;;8.43;4.45;;;17.20;88.80;;;;;;5057483;28;20017;-80
2021/08/07 01:55:07;;;;;;;8.25;4.70;;;17.20;89.10;;;;;;5074390;28;20023;-79
2021/08/07 01:57:38;;;;;;;5.13;2.20;;;17.20;89.30;;;;;;5079644;28;20125;-79
2021/08/07 02:00:05;;;;;;;6.60;3.50;;;17.20;89.20;;;;;;5086440;28;20050;-80
2021/08/07 02:02:31;;;;;;;5.32;2.50;;;17.20;89.50;;;;;;5091572;28;20070;-81
2021/08/07 02:04:58;;;;;;;7.68;3.15;;;17.20;88.90;;;;;;5065506;28;20032;-80
2021/08/07 02:07:27;;;;;;;8.57;3.92;;;17.20;89.40;;;;;;5073991;28;20032;-81
2021/08/07 02:09:54;;;;;;;8.93;3.70;;;17.20;89.10;;;;;;5073336;28;20018;-80
2021/08/07 02:12:20;;;;;;;6.28;2.97;;;17.20;89.70;;;;;;5074127;28;20024;-80
2021/08/07 02:14:47;;;;;;;8.77;3.47;;;17.20;89.70;;;;;;5072284;28;20017;-80
2021/08/07 02:17:14;;;;;;;6.32;3.70;;;17.10;89.70;;;;;;5072455;28;20025;-80
2021/08/07 02:19:40;;;;;;;8.40;4.22;;;17.10;90.10;;;;;;5073194;28;20082;-81
2021/08/07 02:22:07;;;;;;;9.05;4.63;;;17.00;90.10;;;;;;5072193;28;20153;-80
2021/08/07 02:24:33;;;;;;;7.78;3.20;;;17.00;90.30;;;;;;5071750;28;20116;-80
2021/08/07 02:27:00;;;;;;;8.55;3.17;;;17.00;90.50;;;;;;5070992;28;20055;-79
2021/08/07 02:29:26;;;;;;;9.57;4.93;;;17.00;90.20;;;;;;5072111;28;20078;-81
2021/08/07 02:31:53;;;;;;;3.75;2.00;;;17.00;90.40;;;;;;5072284;28;20028;-80
2021/08/07 02:34:19;;;;;;;4.57;2.75;;;16.90;90.20;;;;;;5056021;28;20104;-80
2021/08/07 02:36:46;;;;;;;5.63;3.30;;;16.90;90.20;;;;;;5071452;28;20460;-81
2021/08/07 02:39:13;;;;;;;10.02;4.53;;;17.00;90.40;;;;;;5073552;28;20021;-80
2021/08/07 02:41:40;;;;;;;8.00;3.63;;;16.90;90.60;;;;;;5055134;28;20016;-81
2021/08/07 02:44:06;;;;;;;8.57;3.88;;;16.90;90.50;;;;;;5063826;28;20025;-81
2021/08/07 02:46:32;;;;;;;9.02;4.28;;;16.80;90.60;;;;;;5068489;28;20029;-80
2021/08/07 02:48:58;;;;;;;9.00;3.75;;;16.80;90.60;;;;;;5037226;28;20075;-80
2021/08/07 02:51:25;;;;;;;6.55;3.35;;;16.80;90.40;;;;;;5071959;28;20020;-80
2021/08/07 02:53:51;;;;;;;6.75;3.65;;;16.80;90.50;;;;;;5072785;28;20021;-80
2021/08/07 02:56:18;;;;;;;9.10;3.92;;;16.80;90.70;;;;;;5079464;28;20146;-80
2021/08/07 02:58:44;;;;;;;9.18;4.30;;;16.80;90.70;;;;;;5075420;28;20123;-79
2021/08/07 03:01:10;;;;;;;9.13;3.90;;;16.80;90.80;;;;;;5071487;28;20035;-80
2021/08/07 03:03:35;;;;;;;6.80;3.67;;;16.70;90.80;;;;;;5065136;28;20029;-80
2021/08/07 03:06:01;;;;;;;11.52;3.90;;;16.80;90.30;;;;;;5051864;28;20024;-80
2021/08/07 03:08:26;;;;;;;10.90;4.35;;;16.70;90.50;;;;;;5053024;28;20028;-80
2021/08/07 03:10:53;;;;;;;9.27;4.65;;;16.70;90.50;;;;;;5051123;28;20025;-79
2021/08/07 03:13:18;;;;;;;9.10;4.40;;;16.70;90.90;;;;;;5052518;28;20036;-80
2021/08/07 03:15:45;;;;;;;8.13;3.92;;;16.70;90.80;;;;;;5051269;28;20021;-81
2021/08/07 03:18:10;;;;;;;8.10;3.47;;;16.60;91.00;;;;;;5050991;28;20135;-81
2021/08/07 03:20:36;;;;;;;8.00;3.85;;;16.60;91.00;;;;;;5051416;28;20063;-80
2021/08/07 03:23:07;;;;;;;6.60;3.50;;;16.60;91.00;;;;;;5051341;28;20040;-80
2021/08/07 03:25:33;;;;;;;8.55;3.67;;;16.60;91.00;;;;;;5050763;28;20017;-80
2021/08/07 03:27:59;;;;;;;6.72;3.28;;;16.60;91.10;;;;;;5051296;28;20032;-79
2021/08/07 03:30:25;;;;;;;6.85;3.58;;;16.60;90.90;;;;;;5053188;28;20031;-80
2021/08/07 03:32:51;;;;;;;11.00;4.28;;;16.50;91.00;;;;;;5051445;28;20029;-80
2021/08/07 03:35:17;;;;;;;13.25;4.15;;;16.60;91.10;;;;;;5051531;28;20171;-79
2021/08/07 03:37:43;;;;;;;5.45;2.85;;;16.50;91.20;;;;;;5054698;28;20091;-79
2021/08/07 03:40:09;;;;;;;7.70;3.30;;;16.50;90.70;;;;;;5055241;28;20071;-79
2021/08/07 03:42:37;;;;;;;8.27;3.00;;;16.50;91.00;;;;;;5055861;28;20032;-80
2021/08/07 03:45:04;;;;;;;10.05;3.47;;;16.50;91.10;;;;;;5057337;28;20017;-79
2021/08/07 03:47:29;;;;;;;6.65;3.42;;;16.50;91.20;;;;;;5067686;28;20029;-79
2021/08/07 03:49:55;;;;;;;6.72;2.67;;;16.40;91.20;;;;;;5075472;28;20093;-79
2021/08/07 03:52:20;;;;;;;9.23;3.72;;;16.40;91.20;;;;;;5066635;28;20059;-80
2021/08/07 03:54:46;;;;;;;7.07;3.55;;;16.40;91.20;;;;;;5057532;28;20025;-81
2021/08/07 03:57:12;;;;;;;8.20;3.67;;;16.40;91.10;;;;;;5056660;28;20476;-81
2021/08/07 03:59:37;;;;;;;8.02;3.47;;;16.40;91.20;;;;;;5055821;28;20120;-80
2021/08/07 04:02:03;;;;;;;6.40;2.60;;;16.40;91.30;;;;;;5057951;28;20056;-79
2021/08/07 04:04:28;;;;;;;5.10;2.45;;;16.40;91.30;;;;;;5083345;28;20051;-79
2021/08/07 04:06:54;;;;;;;7.65;2.83;;;16.40;91.10;;;;;;5066081;28;20021;-79
2021/08/07 04:09:19;;;;;;;8.05;2.97;;;16.40;91.20;;;;;;5064988;28;20025;-80
2021/08/07 04:11:45;;;;;;;5.18;3.00;;;16.40;90.90;;;;;;5064373;28;20028;-80
2021/08/07 04:14:11;;;;;;;5.32;2.72;;;16.50;91.10;;;;;;5077502;28;20016;-80
2021/08/07 04:16:36;;;;;;;5.47;2.70;;;16.50;91.10;;;;;;5058554;28;20024;-79
2021/08/07 04:19:02;;;;;;;5.88;2.45;;;16.50;91.00;;;;;;5059799;28;20036;-79
2021/08/07 04:21:27;;;;;;;7.03;3.30;;;16.50;91.10;;;;;;5059539;28;20449;-78
2021/08/07 04:23:53;;;;;;;5.07;2.88;;;16.60;91.10;;;;;;5059407;28;20028;-80
2021/08/07 04:26:19;;;;;;;7.55;3.20;;;16.60;91.10;;;;;;5057501;28;20032;-79
2021/08/07 04:28:44;;;;;;;5.57;3.13;;;16.60;91.10;;;;;;5058348;28;20486;-79
2021/08/07 04:31:10;;;;;;;8.18;4.00;;;16.60;91.10;;;;;;5058874;28;20464;-79
2021/08/07 04:33:36;;;;;;;7.60;2.90;;;16.60;91.20;;;;;;5060196;28;20025;-79
2021/08/07 04:36:03;;;;;;;8.43;3.67;;;16.60;91.50;;;;;;5075266;28;20021;-79
2021/08/07 04:38:29;;;;;;;5.57;2.45;;;16.60;91.30;;;;;;5058164;28;20044;-79
2021/08/07 04:40:55;;;;;;;6.95;2.60;;;16.60;91.50;;;;;;5057699;28;20074;-79
2021/08/07 04:43:20;;;;;;;8.00;2.83;;;16.60;91.20;;;;;;5057616;28;20017;-79
2021/08/07 04:45:46;;;;;;;8.00;3.10;;;16.60;91.30;;;;;;5075437;28;20021;-78
2021/08/07 04:48:12;;;;;;;5.75;2.85;;;16.70;91.60;;;;;;5057318;28;20036;-79
2021/08/07 04:50:37;;;;;;;6.70;2.90;;;16.70;91.30;;;;;;5057626;28;20432;-79
2021/08/07 04:53:04;;;;;;;9.30;3.60;;;16.70;91.20;;;;;;5057705;28;20469;-78
2021/08/07 04:55:30;;;;;;;8.23;3.50;;;16.70;91.20;;;;;;5057192;28;20073;-79
2021/08/07 04:57:55;;;;;;;6.35;3.42;;;16.70;91.20;;;;;;5056355;28;20384;-79
2021/08/07 05:00:22;;;;;;;8.38;3.13;;;16.80;91.20;;;;;;5074969;28;20563;-79
2021/08/07 05:02:47;;;;;;;7.13;2.90;;;16.80;91.20;;;;;;5054484;28;20040;-79
2021/08/07 05:05:14;;;;;;;6.32;2.65;;;16.80;91.20;;;;;;5036412;28;20114;-79
2021/08/07 05:07:40;;;;;;;8.38;3.17;;;16.90;91.10;;;;;;5053162;28;20032;-79
2021/08/07 05:10:08;;;;;;;8.10;3.13;;;16.90;91.10;;;;;;5036663;28;20139;-79
2021/08/07 05:12:34;;;;;;;6.18;3.53;;;16.90;90.90;;;;;;5053656;28;20028;-79
2021/08/07 05:15:00;;;;;;;8.40;3.05;;;17.00;90.80;;;;;;5052770;28;20021;-80
2021/08/07 05:17:26;;;;;;;7.60;3.08;;;17.10;90.80;;;;;;5052765;28;20025;-80
2021/08/07 05:19:52;;;;;;;5.78;2.72;;;17.10;90.60;;;;;;5053182;28;20028;-80
2021/08/07 05:22:19;;;;;;;5.05;2.90;;;17.20;90.40;;;;;;5052956;28;20091;-80
2021/08/07 05:24:46;;;;;;;6.65;2.88;;;17.20;90.40;;;;;;5053538;28;20056;-80
2021/08/07 05:27:11;;;;;;;9.07;3.03;;;17.20;90.40;;;;;;5052607;28;20396;-80
2021/08/07 05:29:37;;;;;;;8.75;2.55;;;17.20;90.20;;;;;;5052982;28;20021;-80
2021/08/07 05:32:03;;;;;;;6.00;2.45;;;17.30;89.50;;;;;;5052309;28;20401;-80
2021/08/07 05:34:29;;;;;;;9.13;3.05;;;17.20;89.70;;;;;;5062639;28;20008;-80
2021/08/07 05:36:55;;;;;;;7.68;2.92;;;17.20;89.70;;;;;;5071417;28;20284;-81
2021/08/07 05:39:20;;;;;;;6.53;2.28;;;17.30;89.10;;;;;;5070084;28;20032;-80
2021/08/07 05:41:46;;;;;;;7.18;2.40;;;17.30;88.40;;;;;;5043236;28;20028;-80
2021/08/07 05:44:12;;;;;;;6.43;2.28;;;17.30;89.00;;;;;;5054549;28;20056;-79
2021/08/07 05:46:37;;;;;;;5.20;2.10;;;17.40;89.10;;;;;;5053038;28;20025;-79
2021/08/07 05:49:03;;;;;;;5.68;2.65;;;17.50;89.10;;;;;;5052883;28;20040;-80
2021/08/07 05:51:30;;;;;;;7.25;2.63;;;17.50;88.40;;;;;;5053544;28;20063;-79
2021/08/07 05:53:55;;;;;;;5.82;1.70;;;17.70;88.10;;;;;;5053260;28;20032;-80
2021/08/07 05:56:21;;;;;;;7.40;2.65;;;17.70;86.20;;;;;;5053325;28;20025;-80
2021/08/07 05:58:46;;;;;;;4.78;1.70;;;17.70;86.30;;;;;;5053240;28;20033;-80
2021/08/07 06:01:13;;;;;;;5.50;2.30;;;17.70;86.00;;;;;;5052154;28;20029;-81
2021/08/07 06:03:39;;;;;;;6.38;2.13;;;17.70;86.30;;;;;;5061473;28;20075;-80
2021/08/07 06:06:04;;;;;;;3.90;1.30;;;17.70;84.20;;;;;;5066488;28;20017;-79
2021/08/07 06:08:30;;;;;;;6.22;1.80;;;17.70;84.70;;;;;;5068696;28;20037;-80
2021/08/07 06:10:57;;;;;;;4.03;1.63;;;17.70;84.90;;;;;;5057411;28;20060;-80
2021/08/07 06:13:23;;;;;;;5.70;2.20;;;17.70;84.40;;;;;;5057097;28;20021;-81
2021/08/07 06:15:48;;;;;;;5.72;2.00;;;17.90;84.70;;;;;;5052111;28;20036;-80
2021/08/07 06:18:15;;;;;;;4.93;1.63;;;18.00;84.50;;;;;;5053183;28;20037;-80
2021/08/07 06:20:41;;;;;;;3.40;1.42;;;18.20;84.00;;;;;;5052936;28;20115;-80
2021/08/07 06:23:07;;;;;;;4.32;1.58;;;18.20;83.30;;;;;;5054024;28;20029;-79
2021/08/07 06:25:32;;;;;;;5.32;1.80;;;18.20;82.60;;;;;;5051674;28;20021;-80
2021/08/07 06:27:58;;;;;;;6.70;1.95;;;18.30;82.60;;;;;;5051680;28;20035;-80
2021/08/07 06:30:25;;;;;;;4.60;1.40;;;18.30;82.10;;;;;;5051550;28;20021;-80
2021/08/07 06:32:51;;;;;;;7.22;2.00;;;18.30;82.10;;;;;;5051900;28;20083;-80
2021/08/07 06:35:17;;;;;;;5.25;1.50;;;18.30;82.20;;;;;;5052681;28;20033;-80
2021/08/07 06:37:43;;;;;;;7.07;1.63;;;18.40;81.80;;;;;;5052222;28;20389;-79
2021/08/07 06:40:10;;;;;;;6.45;1.58;;;18.50;81.70;;;;;;5053158;28;20067;-81
2021/08/07 06:42:35;;;;;;;5.05;1.58;;;18.50;81.40;;;;;;5051737;28;20412;-79
2021/08/07 06:45:01;;;;;;;6.85;1.58;;;18.60;81.00;;;;;;5053395;28;20021;-80
2021/08/07 06:47:27;;;;;;;6.25;1.40;;;18.80;80.40;;;;;;5060542;28;20135;-79
2021/08/07 06:49:53;;;;;;;4.60;1.40;;;18.90;79.60;;;;;;5043127;28;20131;-80
2021/08/07 06:52:18;;;;;;;4.40;1.50;;;19.00;78.50;;;;;;5058859;28;20120;-80
2021/08/07 06:54:44;;;;;;;4.32;1.02;;;19.10;78.70;;;;;;5031948;28;20029;-80
2021/08/07 06:57:18;;;;;;;8.93;2.03;;;19.10;78.60;;;;;;5029551;28;20028;-80
2021/08/07 06:59:44;;;;;;;5.80;1.20;;;19.20;77.20;;;;;;5032897;28;20065;-80
2021/08/07 07:02:15;;;;;;;5.97;1.27;;;19.20;77.30;;;;;;5034336;28;20385;-80
2021/08/07 07:04:41;;;;;;;2.92;0.90;;;19.40;76.00;;;;;;5051647;28;20127;-80
2021/08/07 07:07:07;;;;;;;7.18;1.45;;;19.50;75.10;;;;;;5041525;28;20041;-79
2021/08/07 07:09:32;;;;;;;3.17;0.98;;;19.50;74.80;;;;;;5054832;28;20063;-81
2021/08/07 07:11:58;;;;;;;5.93;1.35;;;19.60;74.00;;;;;;5035938;28;20055;-79
2021/08/07 07:14:24;;;;;;;5.88;1.00;;;19.70;73.10;;;;;;5039500;28;20369;-79
2021/08/07 07:16:50;;;;;;;3.53;1.20;;;19.80;72.60;;;;;;5039484;28;20095;-79
2021/08/07 07:19:16;;;;;;;7.25;1.15;;;19.90;72.60;;;;;;5039777;28;20043;-79
2021/08/07 07:21:42;;;;;;;5.13;1.17;;;20.10;71.30;;;;;;5039023;28;20025;-79
2021/08/07 07:24:08;;;;;;;4.63;0.95;;;20.10;70.90;;;;;;5040757;28;20049;-80
2021/08/07 07:26:35;;;;;;;2.97;1.10;;;20.20;71.00;;;;;;5036705;28;20444;-80
2021/08/07 07:29:01;;;;;;;2.72;0.93;;;20.20;70.80;;;;;;5031297;28;20564;-80
2021/08/07 07:31:26;;;;;;;4.00;0.93;;;20.10;71.50;;;;;;5018437;28;20508;-81
2021/08/07 07:33:53;;;;;;;5.20;1.10;;;20.10;70.90;;;;;;5019135;28;20505;-81
2021/08/07 07:36:19;;;;;;;6.18;1.35;;;20.10;71.50;;;;;;5019006;28;20029;-81
2021/08/07 07:38:45;;;;;;;5.55;0.93;;;20.20;69.90;;;;;;5019318;28;20030;-81
2021/08/07 07:41:12;;;;;;;5.82;0.95;;;20.20;70.20;;;;;;5020052;28;20018;-81
2021/08/07 07:43:38;;;;;;;3.05;1.05;;;20.30;69.80;;;;;;5019617;28;20148;-81
2021/08/07 07:46:07;;;;;;;4.38;1.17;;;20.50;69.90;;;;;;5022708;28;20017;-80
2021/08/07 07:48:33;;;;;;;7.30;1.83;;;20.60;69.00;;;;;;5046637;28;20021;-82
2021/08/07 07:50:59;;;;;;;4.28;0.80;;;20.70;69.10;;;;;;5018902;28;20037;-81
2021/08/07 07:53:25;;;;;;;5.32;1.38;;;20.70;69.20;;;;;;5018616;28;20029;-80
2021/08/07 07:55:51;;;;;;;4.13;0.77;;;20.80;67.40;;;;;;5018928;28;20041;-81
2021/08/07 07:58:16;;;;;;;7.13;1.13;;;20.90;69.00;;;;;;5019699;28;20119;-81
2021/08/07 08:00:42;;;;;;;5.28;1.00;;;21.10;68.10;;;;;;5020151;28;20115;-80
2021/08/07 08:03:08;;;;;;;5.97;1.10;;;21.30;67.30;;;;;;5020742;28;20457;-81
2021/08/07 08:05:33;;;;;;;3.55;1.05;;;21.40;66.40;;;;;;5037642;28;20117;-80
2021/08/07 08:07:59;;;;;;;4.95;0.88;;;21.70;65.20;;;;;;5037801;28;20045;-82
2021/08/07 08:10:25;;;;;;;8.43;1.33;;;21.80;64.00;;;;;;5057512;28;20009;-80
2021/08/07 08:12:51;;;;;;;4.75;1.45;;;22.00;62.50;;;;;;5043363;28;20032;-80
2021/08/07 08:15:18;;;;;;;3.92;0.95;;;21.90;61.40;;;;;;5038571;28;20024;-80
2021/08/07 08:17:43;;;;;;;6.78;1.30;;;21.80;63.00;;;;;;5056057;28;20032;-80
2021/08/07 08:20:10;;;;;;;3.10;0.93;;;21.70;65.10;;;;;;5039282;28;20029;-81
2021/08/07 08:22:36;;;;;;;2.03;0.70;;;21.70;65.60;;;;;;5038644;28;20013;-81
2021/08/07 08:25:02;;;;;;;4.88;1.33;;;21.60;67.20;;;;;;5037423;28;20017;-80
2021/08/07 08:27:28;;;;;;;6.00;1.08;;;21.60;67.70;;;;;;5039753;28;20024;-81
2021/08/07 08:29:56;;;;;;;4.63;1.02;;;21.60;67.70;;;;;;5037884;28;20457;-80
2021/08/07 08:32:22;;;;;;;4.13;1.25;;;21.70;62.70;;;;;;5055638;28;20016;-81
2021/08/07 08:34:48;;;;;;;3.08;1.17;;;21.80;66.90;;;;;;5038984;28;20071;-82
2021/08/07 08:37:13;;;;;;;4.50;1.10;;;22.00;65.30;;;;;;5038453;28;20017;-81
2021/08/07 08:39:39;;;;;;;7.90;1.27;;;22.10;64.40;;;;;;5039185;28;20058;-82
2021/08/07 08:42:07;;;;;;;5.88;1.80;;;22.30;63.40;;;;;;5038508;28;20025;-81
2021/08/07 08:44:34;;;;;;;3.75;1.00;;;22.50;61.40;;;;;;5037989;28;20125;-80
2021/08/07 08:47:00;;;;;;;5.20;1.20;;;22.60;65.00;;;;;;5038422;28;20029;-80
2021/08/07 08:49:28;;;;;;;4.07;0.98;;;22.70;65.00;;;;;;5055812;28;20044;-81
2021/08/07 08:51:53;;;;;;;7.55;1.40;;;22.90;65.60;;;;;;5038043;28;20040;-82
2021/08/07 08:54:19;;;;;;;5.47;1.20;;;22.80;61.40;;;;;;5037650;28;20052;-82
2021/08/07 08:56:49;;;;;;;5.57;0.90;;;22.70;64.70;;;;;;5038202;28;20519;-82
2021/08/07 08:59:24;;;;;;;;;;;22.60;66.20;;;;;;5056019;28;20091;-81
2021/08/07 09:01:50;;;;;;;4.15;1.25;;;22.50;66.20;;;;;;5037933;28;19905;-81
2021/08/07 09:04:16;;;;;;;4.35;0.90;;;22.50;68.10;;;;;;5038544;28;20029;-82
2021/08/07 09:06:43;;;;;;;6.63;1.38;;;22.50;69.00;;;;;;5039158;28;20021;-82
2021/08/07 09:09:11;;;;;;;3.78;1.15;;;22.40;68.80;;;;;;5039390;28;20021;-81
2021/08/07 09:11:39;;;;;;;4.13;1.25;;;22.30;68.30;;;;;;5044271;28;20025;-81
2021/08/07 09:14:18;;;;;;;6.05;1.10;;;22.00;66.00;;;;;;5053747;28;20021;-82
2021/08/07 09:17:04;;;;;;;7.10;1.90;;;22.00;70.10;;;;;;5074750;28;20040;-82
2021/08/07 09:19:39;;;;;;;5.57;1.73;;;22.20;67.40;;;;;;5060979;28;20041;-82
2021/08/07 09:22:25;;;;;;;5.00;1.73;;;22.30;68.00;;;;;;5058746;28;20021;-81
2021/08/07 09:25:10;;;;;;;3.40;1.05;;;22.50;67.40;;;;;;5047326;28;20047;-82
2021/08/07 09:27:45;;;;;;;11.95;2.05;;;22.60;68.10;;;;;;5044159;28;20024;-81
2021/08/07 09:30:16;;;;;;;6.45;1.35;;;22.40;68.70;;;;;;5049672;28;20029;-82
2021/08/07 09:32:46;;;;;;;3.47;1.08;;;22.50;68.90;;;;;;5064568;28;20107;-83
2021/08/07 09:35:14;;;;;;;5.15;1.77;;;22.40;70.10;;;;;;5038824;28;20032;-81
2021/08/07 09:37:41;;;;;;;5.82;1.67;;;22.30;66.50;;;;;;5037239;28;20102;-81
2021/08/07 09:40:10;;;;;;;6.93;1.88;;;22.30;67.30;;;;;;5037528;28;20025;-81
2021/08/07 09:42:52;;;;;;;6.80;1.70;;;22.20;69.30;;;;;;5037185;28;20031;-81
2021/08/07 09:45:25;;;;;;;3.83;1.35;;;22.00;69.90;;;;;;5055250;28;20499;-82
2021/08/07 09:48:03;;;;;;;7.97;1.58;;;21.90;71.40;;;;;;5037045;28;20577;-82
2021/08/07 09:50:31;;;;;;;7.85;1.67;;;21.90;68.40;;;;;;5055230;28;20027;-82
2021/08/07 09:52:57;;;;;;;4.07;1.27;;;22.10;69.80;;;;;;5036665;28;20025;-79
2021/08/07 09:55:23;;;;;;;3.33;1.40;;;22.30;69.10;;;;;;5037101;28;20027;-81
2021/08/07 09:58:07;;;;;;;5.57;1.25;;;22.50;68.50;;;;;;5054420;28;20040;-81
2021/08/07 10:00:37;;;;;;;3.15;1.00;;;22.80;67.70;;;;;;5031065;28;20064;-81
2021/08/07 10:03:18;;;;;;;4.10;1.10;;;23.20;68.10;;;;;;5032899;28;20139;-80
2021/08/07 10:05:47;;;;;;;5.72;1.52;;;23.40;66.80;;;;;;5017312;28;20034;-81
2021/08/07 10:08:14;;;;;;;4.78;1.55;;;23.30;67.90;;;;;;5017419;28;20091;-81
2021/08/07 10:10:41;;;;;;;2.97;0.90;;;23.30;65.40;;;;;;5017426;28;20112;-81
2021/08/07 10:13:08;;;;;;;7.40;1.50;;;23.30;68.60;;;;;;5028836;28;20033;-79
2021/08/07 10:15:37;;;;;;;5.55;1.10;;;23.30;67.20;;;;;;5025718;28;20018;-82
2021/08/07 10:18:03;;;;;;;3.80;1.20;;;23.20;67.90;;;;;;5035955;28;20134;-81
2021/08/07 10:20:30;;;;;;;3.63;1.23;;;23.10;67.70;;;;;;5016365;28;20036;-81
2021/08/07 10:22:57;;;;;;;4.93;1.70;;;23.00;69.30;;;;;;5017376;28;20039;-82
2021/08/07 10:25:24;;;;;;;3.17;1.20;;;23.00;68.00;;;;;;5016565;28;20109;-81
2021/08/07 10:27:56;;;;;;;6.95;1.90;;;22.90;66.00;;;;;;5034496;28;20037;-81
2021/08/07 10:30:22;;;;;;;5.47;1.35;;;23.00;65.40;;;;;;5016521;28;20033;-81
2021/08/07 10:32:49;;;;;;;6.65;1.80;;;23.30;63.80;;;;;;5016802;28;20045;-81
2021/08/07 10:35:16;;;;;;;8.02;2.30;;;23.50;63.40;;;;;;5017039;28;20029;-81
2021/08/07 10:37:42;;;;;;;7.03;1.40;;;23.80;61.30;;;;;;5015569;28;20032;-81
2021/08/07 10:40:09;;;;;;;4.30;1.02;;;24.10;62.00;;;;;;5015814;28;20022;-81
2021/08/07 10:42:36;;;;;;;5.20;1.25;;;24.20;64.10;;;;;;5015259;28;20029;-81
2021/08/07 10:45:08;;;;;;;5.22;1.23;;;24.10;63.20;;;;;;5016773;28;20497;-80
2021/08/07 10:47:45;;;;;;;2.78;1.13;;;24.00;63.10;;;;;;5015936;28;20385;-81
2021/08/07 10:50:28;;;;;;;3.47;1.35;;;24.10;64.50;;;;;;5017170;28;20018;-81
2021/08/07 10:53:00;;;;;;;5.22;1.73;;;24.40;59.10;;;;;;5034250;28;20025;-82
2021/08/07 10:55:53;;;;;;;3.50;1.25;;;24.30;57.30;;;;;;5017100;28;20025;-81
2021/08/07 10:58:45;;;;;;;6.15;1.30;;;24.00;63.80;;;;;;5018505;28;20045;-81
2021/08/07 11:01:26;;;;;;;8.15;1.08;;;23.80;62.30;;;;;;5024778;28;20002;-80
2021/08/07 11:04:00;;;;;;;4.90;1.27;;;23.60;63.50;;;;;;5048439;28;20043;-82
2021/08/07 11:06:44;;;;;;;3.55;1.00;;;23.20;62.30;;;;;;5040829;28;20033;-82
2021/08/07 11:09:40;;;;;;;5.32;1.10;;;22.80;61.20;;;;;;4993393;28;20030;-81
2021/08/07 11:12:05;;;;;;;5.65;1.30;;;22.70;64.20;;;;;;4988481;28;20022;-81
2021/08/07 11:14:34;;;;;;;6.07;1.60;;;23.00;65.70;;;;;;5012174;28;20033;-81
2021/08/07 11:17:03;;;;;;;5.85;1.08;;;23.60;61.90;;;;;;5012155;28;20033;-82
2021/08/07 11:19:50;;;;;;;3.55;1.35;;;23.90;58.80;;;;;;5013310;28;20041;-83
2021/08/07 11:22:40;;;;;;;6.15;1.55;;;24.00;57.50;;;;;;5028755;28;20030;-81
2021/08/07 11:25:09;;;;;;;7.07;1.08;;;24.00;59.50;;;;;;5012840;28;20025;-82
2021/08/07 11:27:48;;;;;;;7.63;1.10;;;24.20;60.30;;;;;;4991969;28;20062;-82
2021/08/07 11:30:35;;;;;;;6.70;1.50;;;24.40;57.90;;;;;;5028332;28;20030;-82
2021/08/07 11:33:01;;;;;;;6.75;1.63;;;24.80;56.80;;;;;;4994925;28;20037;-81
2021/08/07 11:35:33;;;;;;;6.03;1.33;;;24.90;60.30;;;;;;4995371;28;20030;-82
2021/08/07 11:38:14;;;;;;;4.65;1.40;;;24.80;56.10;;;;;;5028477;28;20449;-81
2021/08/07 11:40:40;;;;;;;4.32;1.15;;;25.00;58.50;;;;;;4992063;28;20391;-80
2021/08/07 11:43:18;;;;;;;3.95;1.05;;;25.30;57.60;;;;;;4987958;28;20109;-81
2021/08/07 11:45:48;;;;;;;6.68;1.05;;;25.40;58.50;;;;;;4995607;28;20029;-81
2021/08/07 11:48:29;;;;;;;4.85;0.90;;;25.20;61.70;;;;;;5013222;28;20465;-80
2021/08/07 11:50:56;;;;;;;8.27;1.75;;;25.10;61.20;;;;;;5013480;28;20026;-82
2021/08/07 11:53:25;;;;;;;5.72;1.25;;;25.00;54.20;;;;;;4992733;28;20026;-83
2021/08/07 11:55:57;;;;;;;3.97;1.10;;;24.90;61.00;;;;;;4994809;28;20022;-82
2021/08/07 11:58:23;;;;;;;4.95;1.13;;;24.80;59.40;;;;;;5029752;28;20034;-81
2021/08/07 12:00:49;;;;;;;3.60;1.08;;;25.10;58.70;;;;;;5017911;28;20022;-80
2021/08/07 12:03:14;;;;;;;3.75;1.05;;;25.10;56.30;;;;;;5001098;28;20037;-81
2021/08/07 12:05:55;;;;;;;4.38;1.08;;;25.10;55.40;;;;;;5017121;28;20030;-81
2021/08/07 12:08:23;;;;;;;3.70;1.05;;;24.90;59.50;;;;;;5033226;28;20412;-82
2021/08/07 12:10:51;;;;;;;4.47;0.77;;;24.90;56.50;;;;;;5025716;28;20112;-81
2021/08/07 12:13:21;;;;;;;7.05;1.67;;;25.00;59.00;;;;;;5037385;28;20021;-82
2021/08/07 12:16:10;;;;;;;2.60;0.65;;;25.30;52.70;;;;;;5044921;28;20025;-81
2021/08/07 12:18:47;;;;;;;4.43;0.95;;;25.70;54.80;;;;;;5031341;28;20386;-82
2021/08/07 12:21:40;;;;;;;6.40;1.15;;;26.00;57.00;;;;;;5037695;28;20025;-82
2021/08/07 12:24:08;;;;;;;5.00;1.02;;;26.00;52.50;;;;;;5013084;28;20048;-82
2021/08/07 12:26:44;;;;;;;4.88;1.25;;;26.00;56.20;;;;;;5017876;28;20053;-82
2021/08/07 12:29:12;;;;;;;3.08;1.05;;;26.20;51.80;;;;;;5035997;28;20080;-82
2021/08/07 12:31:39;;;;;;;3.80;1.15;;;26.20;51.50;;;;;;5038403;28;20033;-81
2021/08/07 12:34:17;;;;;;;6.13;1.35;;;26.20;58.10;;;;;;5021776;28;20032;-82
2021/08/07 12:37:19;;;;;;;6.38;1.27;;;26.20;51.50;;;;;;5017215;28;20025;-82
2021/08/07 12:39:49;;;;;;;4.75;0.80;;;26.40;49.50;;;;;;5035788;28;20026;-81
2021/08/07 12:42:18;;;;;;;4.20;0.75;;;26.60;51.00;;;;;;5035914;28;20029;-82
2021/08/07 12:44:59;;;;;;;3.22;0.95;;;26.50;55.00;;;;;;5018489;28;20381;-82
2021/08/07 12:47:29;;;;;;;3.00;1.15;;;26.10;51.50;;;;;;5020831;28;20116;-82
2021/08/07 12:49:55;;;;;;;3.63;1.08;;;25.80;57.40;;;;;;5027255;28;20483;-82
2021/08/07 12:52:21;;;;;;;2.63;0.80;;;25.80;51.10;;;;;;5037097;28;20030;-81
2021/08/07 12:55:08;;;;;;;2.17;0.50;;;26.00;56.10;;;;;;5029101;28;20477;-81